createdAt,value
2022-10-21T00:02:28.077Z,101757.16
2022-10-21T00:05:15.421Z,101751.00
2022-10-21T00:08:02.321Z,101758.00
2022-10-21T00:10:49.384Z,101757.97
2022-10-21T00:13:36.180Z,101756.22
2022-10-21T00:16:23.262Z,101756.19
2022-10-21T00:19:10.140Z,101748.28
2022-10-21T00:21:57.149Z,101643.69
2022-10-21T00:24:44.012Z,101745.59
2022-10-21T00:27:31.080Z,101725.59
2022-10-21T00:30:17.970Z,101745.56
2022-10-21T00:33:04.796Z,101745.59
2022-10-21T00:36:08.254Z,101757.88
2022-10-21T00:38:36.377Z,101716.00
2022-10-21T00:41:23.271Z,101750.84
2022-10-21T00:44:20.697Z,101751.72
2022-10-21T00:47:14.061Z,101754.34
2022-10-21T00:50:17.462Z,101751.72
2022-10-21T00:53:04.700Z,101751.75
2022-10-21T00:55:56.725Z,101741.19
2022-10-21T00:58:47.563Z,101720.28
2022-10-21T01:01:35.244Z,101737.72
2022-10-21T01:04:22.243Z,101749.13
2022-10-21T01:07:09.992Z,101753.56
2022-10-21T01:09:57.050Z,101750.03
2022-10-21T01:13:20.886Z,101745.69
2022-10-21T01:16:13.987Z,101752.75
2022-10-21T01:19:12.211Z,101746.63
2022-10-21T01:22:10.626Z,101700.53
2022-10-21T01:25:20.965Z,101758.13
2022-10-21T01:28:19.021Z,101750.22
2022-10-21T01:31:30.667Z,101758.16
2022-10-21T01:34:33.968Z,101756.41
2022-10-21T01:37:45.590Z,101749.44
2022-10-21T01:40:56.843Z,101756.53
2022-10-21T01:43:55.712Z,101758.31
2022-10-21T01:46:59.722Z,101755.72
2022-10-21T01:49:55.332Z,101761.03
2022-10-21T01:52:43.124Z,101738.19
2022-10-21T01:55:35.047Z,101740.94
2022-10-21T01:58:26.294Z,101745.28
2022-10-21T02:01:16.615Z,101744.44
2022-10-21T02:04:07.232Z,101743.59
2022-10-21T02:06:54.288Z,101743.63
2022-10-21T02:09:41.300Z,101755.97
2022-10-21T02:12:30.020Z,101742.84
2022-10-21T02:15:20.583Z,101748.13
2022-10-21T02:18:13.839Z,101751.66
2022-10-21T02:21:03.607Z,101751.69
2022-10-21T02:23:59.973Z,101742.91
2022-10-21T02:26:48.790Z,101740.38
2022-10-21T02:29:42.539Z,101748.28
2022-10-21T02:32:56.974Z,101755.38
2022-10-21T02:36:01.392Z,101733.59
2022-10-21T02:38:56.988Z,101761.56
2022-10-21T02:41:47.188Z,101765.09
2022-10-21T02:44:34.277Z,101756.34
2022-10-21T02:47:22.932Z,101744.16
2022-10-21T02:50:09.937Z,101755.53
2022-10-21T02:52:56.772Z,101751.16
2022-10-21T02:55:44.164Z,101726.75
2022-10-21T02:58:31.188Z,101759.09
2022-10-21T03:01:18.573Z,101756.50
2022-10-21T03:04:05.716Z,101673.75
2022-10-21T03:06:52.716Z,101741.78
2022-10-21T03:09:39.686Z,101767.09
2022-10-21T03:12:26.651Z,101772.41
2022-10-21T03:15:13.475Z,101767.16
2022-10-21T03:18:00.589Z,101769.81
2022-10-21T03:20:47.464Z,101773.34
2022-10-21T03:23:34.538Z,101774.25
2022-10-21T03:26:21.364Z,101773.41
2022-10-21T03:29:08.344Z,101761.13
2022-10-21T03:31:55.179Z,101773.47
2022-10-21T03:34:42.252Z,101677.56
2022-10-21T03:37:29.037Z,101765.59
2022-10-21T03:40:16.028Z,101757.75
2022-10-21T03:43:02.837Z,101749.91
2022-10-21T03:45:49.936Z,101768.28
2022-10-21T03:48:36.823Z,101777.06
2022-10-21T03:51:23.815Z,101787.63
2022-10-21T03:54:10.856Z,101782.38
2022-10-21T03:56:57.871Z,101778.06
2022-10-21T03:59:45.236Z,101785.91
2022-10-21T04:02:32.496Z,101784.16
2022-10-21T04:05:19.583Z,101789.44
2022-10-21T04:08:06.480Z,101787.72
2022-10-21T04:10:53.479Z,101791.25
2022-10-21T04:13:40.395Z,101795.66
2022-10-21T04:16:30.468Z,101792.13
2022-10-21T04:19:17.556Z,101769.44
2022-10-21T04:22:05.463Z,101787.78
2022-10-21T04:24:52.402Z,101791.19
2022-10-21T04:27:39.364Z,101700.50
2022-10-21T04:30:27.116Z,101798.22
2022-10-21T04:33:14.102Z,101776.38
2022-10-21T04:36:01.192Z,101791.22
2022-10-21T04:38:48.148Z,101791.25
2022-10-21T04:41:35.100Z,101788.63
2022-10-21T04:44:23.128Z,101789.53
2022-10-21T04:47:10.132Z,101786.09
2022-10-21T04:49:56.964Z,101766.06
2022-10-21T04:52:43.997Z,101794.88
2022-10-21T04:55:32.156Z,101794.03
2022-10-21T04:58:21.777Z,101782.72
2022-10-21T05:01:11.096Z,101784.41
2022-10-21T05:03:58.353Z,101791.47
2022-10-21T05:06:45.349Z,101783.59
2022-10-21T05:09:32.404Z,101788.03
2022-10-21T05:12:19.339Z,101793.28
2022-10-21T05:15:06.285Z,101792.41
2022-10-21T05:17:53.160Z,101744.47
2022-10-21T05:20:40.768Z,101794.22
2022-10-21T05:23:27.708Z,101790.75
2022-10-21T05:26:14.893Z,101789.88
2022-10-21T05:29:01.827Z,101788.19
2022-10-21T05:31:48.918Z,101778.56
2022-10-21T05:34:35.793Z,101783.81
2022-10-21T05:37:22.765Z,101793.53
2022-10-21T05:40:09.621Z,101792.66
2022-10-21T05:42:56.539Z,101781.34
2022-10-21T05:45:43.552Z,101801.47
2022-10-21T05:48:30.584Z,101770.88
2022-10-21T05:51:17.417Z,101780.44
2022-10-21T05:54:04.641Z,101791.88
2022-10-21T05:56:52.047Z,101791.00
2022-10-21T05:59:39.178Z,101765.81
2022-10-21T06:02:26.728Z,101791.06
2022-10-21T06:05:13.795Z,101792.84
2022-10-21T06:08:00.991Z,101792.84
2022-10-21T06:10:47.837Z,101797.25
2022-10-21T06:13:34.885Z,101809.56
2022-10-21T06:16:22.202Z,101740.59
2022-10-21T06:19:09.151Z,101810.63
2022-10-21T06:45:14.417Z,101830.78
2022-10-21T06:48:01.251Z,101719.06
2022-10-21T06:50:48.551Z,101833.41
2022-10-21T06:53:38.221Z,101836.94
2022-10-21T06:56:29.515Z,101837.78
2022-10-21T06:59:17.999Z,101838.66
2022-10-21T07:02:05.123Z,101830.75
2022-10-21T07:04:51.922Z,101847.41
2022-10-21T07:07:40.004Z,101838.66
2022-10-21T07:10:27.424Z,101843.91
2022-10-21T07:13:14.340Z,101846.47
2022-10-21T07:16:01.221Z,101850.84
2022-10-21T07:18:48.469Z,101839.47
2022-10-21T07:21:38.799Z,101860.44
2022-10-21T07:24:26.283Z,101863.03
2022-10-21T07:27:13.132Z,101863.00
2022-10-21T07:30:00.176Z,101866.50
2022-10-21T07:32:47.104Z,101878.75
2022-10-21T07:35:34.196Z,101870.81
2022-10-21T07:38:22.859Z,101851.53
2022-10-21T07:41:09.992Z,101864.63
2022-10-21T07:43:56.961Z,101871.63
2022-10-21T07:46:44.227Z,101834.06
2022-10-21T07:49:33.113Z,101852.34
2022-10-21T07:52:20.138Z,101883.81
2022-10-21T07:55:07.215Z,101888.16
2022-10-21T07:57:54.276Z,101889.88
2022-10-21T08:00:41.411Z,101882.84
2022-10-21T08:03:28.564Z,101868.88
2022-10-21T08:06:16.651Z,101857.47
2022-10-21T08:09:04.972Z,101839.13
2022-10-21T08:11:54.136Z,101894.94
2022-10-21T08:14:41.025Z,101892.28
2022-10-21T08:17:28.087Z,101902.78
2022-10-21T08:20:15.068Z,101895.72
2022-10-21T08:23:02.257Z,101893.06
2022-10-21T08:25:49.057Z,101901.81
2022-10-21T08:28:37.071Z,101895.63
2022-10-21T08:31:35.861Z,101899.09
2022-10-21T08:34:22.887Z,101863.25
2022-10-21T08:37:09.732Z,101898.13
2022-10-21T08:39:56.753Z,101899.88
2022-10-21T08:42:44.574Z,101906.84
2022-10-21T08:45:55.608Z,101903.28
2022-10-21T08:48:50.132Z,101903.25
2022-10-21T08:51:48.140Z,101904.09
2022-10-21T08:54:44.252Z,101911.09
2022-10-21T08:57:32.502Z,101911.94
2022-10-21T09:00:19.454Z,101876.91
2022-10-21T09:03:36.126Z,101890.81
2022-10-21T09:06:48.724Z,101898.59
2022-10-21T09:09:50.205Z,101897.69
2022-10-21T09:12:46.656Z,101896.78
2022-10-21T09:15:36.210Z,101893.19
2022-10-21T09:18:45.647Z,101888.75
2022-10-21T09:22:16.345Z,101900.16
2022-10-21T09:25:41.787Z,101899.19
2022-10-21T09:28:34.981Z,101892.16
2022-10-21T09:31:31.913Z,101851.06
2022-10-21T09:34:22.640Z,101883.25
2022-10-21T09:37:12.389Z,101823.91
2022-10-21T09:40:02.819Z,101871.78
2022-10-21T09:42:50.183Z,101863.94
2022-10-21T09:45:47.169Z,101868.19
2022-10-21T09:48:55.077Z,101868.13
2022-10-21T09:51:54.032Z,101872.47
2022-10-21T09:54:44.836Z,101882.13
2022-10-21T09:57:58.202Z,101875.06
2022-10-21T10:01:07.130Z,101866.22
2022-10-21T10:03:56.656Z,101868.81
2022-10-21T10:06:58.259Z,101868.78
2022-10-21T10:09:47.054Z,101859.06
2022-10-21T10:12:36.898Z,101851.97
2022-10-21T10:15:45.418Z,101856.38
2022-10-21T10:18:42.577Z,101822.25
2022-10-21T10:21:40.842Z,101846.59
2022-10-21T10:24:36.415Z,101840.41
2022-10-21T10:27:31.569Z,101838.66
2022-10-21T10:30:20.548Z,101848.28
2022-10-21T10:33:09.272Z,101845.66
2022-10-21T10:35:58.277Z,101842.09
2022-10-21T10:38:51.480Z,101830.63
2022-10-21T10:41:38.855Z,101845.56
2022-10-21T10:44:32.197Z,101837.63
2022-10-21T10:47:22.146Z,101831.41
2022-10-21T10:50:10.765Z,101825.28
2022-10-21T10:52:57.713Z,101832.25
2022-10-21T10:55:44.793Z,101839.25
2022-10-21T10:58:32.904Z,101833.97
2022-10-21T11:01:25.653Z,101828.66
2022-10-21T11:04:21.088Z,101828.63
2022-10-21T11:07:14.015Z,101833.88
2022-10-21T11:10:00.972Z,101828.53
2022-10-21T11:12:48.185Z,101796.97
2022-10-21T11:15:35.802Z,101815.22
2022-10-21T11:18:48.749Z,101810.78
2022-10-21T11:22:20.988Z,101803.69
2022-10-21T11:25:50.177Z,101801.88
2022-10-21T11:28:37.068Z,101794.78
2022-10-21T11:32:06.650Z,101797.38
2022-10-21T11:35:20.944Z,101807.91
2022-10-21T11:38:39.132Z,101814.94
2022-10-21T11:41:46.283Z,101813.97
2022-10-21T11:44:46.017Z,101787.75
2022-10-21T11:47:35.739Z,101805.97
2022-10-21T11:50:32.579Z,101809.47
2022-10-21T11:53:26.202Z,101810.28
2022-10-21T11:56:45.815Z,101811.13
2022-10-21T11:59:38.305Z,101812.84
2022-10-21T12:02:43.967Z,101806.63
2022-10-21T12:05:51.355Z,101815.41
2022-10-21T12:09:10.729Z,101805.69
2022-10-21T12:12:24.354Z,101808.31
2022-10-21T12:15:02.491Z,101791.53
2022-10-21T12:17:53.620Z,101774.97
2022-10-21T12:20:46.837Z,101794.13
2022-10-21T12:23:37.920Z,101794.97
2022-10-21T12:29:56.786Z,101778.31
2022-10-21T12:32:52.545Z,101793.06
2022-10-21T12:36:08.596Z,101798.31
2022-10-21T12:39:07.150Z,101800.91
2022-10-21T12:41:56.310Z,101799.13
2022-10-21T12:44:48.055Z,101807.03
2022-10-21T12:47:50.055Z,101811.38
2022-10-21T12:50:36.888Z,101813.06
2022-10-21T12:53:36.645Z,101813.03
2022-10-21T12:56:25.696Z,101813.03
2022-10-21T12:59:17.739Z,101810.44
2022-10-21T13:02:06.671Z,101815.63
2022-10-21T13:04:53.573Z,101806.75
2022-10-21T13:07:50.411Z,101806.69
2022-10-21T13:10:45.040Z,101805.78
2022-10-21T13:13:50.337Z,101803.09
2022-10-21T13:16:40.272Z,101803.94
2022-10-21T13:19:36.333Z,101801.28
2022-10-21T13:22:31.972Z,101805.66
2022-10-21T13:25:44.073Z,101806.59
2022-10-21T13:28:33.911Z,101804.81
2022-10-21T13:31:21.268Z,101809.19
2022-10-21T13:34:13.627Z,101808.25
2022-10-21T13:37:02.372Z,101805.66
2022-10-21T13:39:53.449Z,101796.88
2022-10-21T13:42:40.723Z,101781.13
2022-10-21T13:48:39.090Z,101792.47
2022-10-21T13:51:37.954Z,101786.31
2022-10-21T13:54:38.863Z,101784.56
2022-10-21T13:57:27.758Z,101787.19
2022-10-21T14:00:37.285Z,101778.41
2022-10-21T14:03:25.987Z,101793.34
2022-10-21T14:06:18.553Z,101785.41
2022-10-21T14:09:07.796Z,101774.81
2022-10-21T14:12:03.598Z,101771.25
2022-10-21T14:14:53.460Z,101769.53
2022-10-21T14:17:44.767Z,101768.69
2022-10-21T14:20:42.484Z,101773.97
2022-10-21T14:23:39.115Z,101774.91
2022-10-21T14:26:28.449Z,101779.19
2022-10-21T14:29:15.368Z,101780.09
2022-10-21T14:32:02.618Z,101778.34
2022-10-21T14:34:56.278Z,101777.47
2022-10-21T14:37:43.497Z,101772.19
2022-10-21T14:40:53.072Z,101769.56
2022-10-21T14:43:47.727Z,101770.44
2022-10-21T14:46:35.837Z,101723.41
2022-10-21T14:49:22.782Z,101772.25
2022-10-21T14:52:16.174Z,101787.13
2022-10-21T14:55:04.871Z,101781.81
2022-10-21T14:57:51.911Z,101773.88
2022-10-21T15:00:46.808Z,101777.38
2022-10-21T15:03:33.823Z,101754.59
2022-10-21T15:06:43.353Z,101769.38
2022-10-21T15:09:30.464Z,101767.63
2022-10-21T15:12:18.538Z,101751.97
2022-10-21T15:14:45.615Z,101771.13
2022-10-21T15:17:16.028Z,101764.09
2022-10-21T15:19:51.661Z,101763.22
2022-10-21T15:22:27.407Z,101761.44
2022-10-21T15:24:59.205Z,101759.78
2022-10-21T15:27:26.054Z,101752.78
2022-10-21T15:29:53.152Z,101739.75
2022-10-21T15:32:24.509Z,101748.41
2022-10-21T15:34:55.184Z,101748.47
2022-10-21T15:37:22.203Z,101756.31
2022-10-21T15:39:49.181Z,101757.19
2022-10-21T15:42:18.518Z,101739.78
2022-10-21T15:44:49.956Z,101755.47
2022-10-21T15:47:17.528Z,101751.09
2022-10-21T15:49:46.682Z,101754.59
2022-10-21T15:52:14.208Z,101763.47
2022-10-21T15:54:41.984Z,101741.75
2022-10-21T15:57:19.087Z,101765.31
2022-10-21T15:59:47.079Z,101760.03
2022-10-21T16:02:17.545Z,101760.97
2022-10-21T16:04:45.157Z,101754.88
2022-10-21T16:07:22.899Z,101761.94
2022-10-21T16:09:50.168Z,101685.28
2022-10-21T16:12:19.685Z,101753.22
2022-10-21T16:14:46.767Z,101719.22
2022-10-21T16:17:14.111Z,101754.13
2022-10-21T16:19:42.225Z,101756.81
2022-10-21T16:22:36.871Z,101759.50
2022-10-21T16:25:24.202Z,101755.09
2022-10-21T16:28:15.539Z,101756.88
2022-10-21T16:31:03.009Z,101762.19
2022-10-21T16:33:50.228Z,101755.16
2022-10-21T16:36:49.833Z,101766.66
2022-10-21T16:39:42.207Z,101757.91
2022-10-21T16:42:29.399Z,101771.16
2022-10-21T16:45:16.299Z,101772.97
2022-10-21T16:48:10.845Z,101759.84
2022-10-21T16:51:03.308Z,101764.31
2022-10-21T16:53:50.311Z,101736.44
2022-10-21T16:56:37.424Z,101770.53
2022-10-21T16:59:25.076Z,101766.22
2022-10-21T17:02:11.997Z,101764.53
2022-10-21T17:04:58.932Z,101762.78
2022-10-21T17:07:45.813Z,101755.81
2022-10-21T17:10:32.677Z,101758.53
2022-10-21T17:13:19.741Z,101661.94
2022-10-21T17:16:06.643Z,101769.22
2022-10-21T17:18:53.633Z,101761.41
2022-10-21T17:21:41.998Z,101729.34
2022-10-21T17:24:34.477Z,101664.97
2022-10-21T17:27:21.504Z,101759.06
2022-10-21T17:30:08.487Z,101764.38
2022-10-21T17:32:55.439Z,101751.19
2022-10-21T17:35:42.445Z,101761.78
2022-10-21T17:38:29.375Z,101752.94
2022-10-21T17:41:16.253Z,101749.44
2022-10-21T17:44:03.700Z,101751.28
2022-10-21T17:46:50.560Z,101742.44
2022-10-21T17:49:37.650Z,101740.69
2022-10-21T17:52:24.617Z,101744.13
2022-10-21T17:55:11.527Z,101748.53
2022-10-21T17:57:58.505Z,101746.75
2022-10-21T18:00:45.632Z,101746.78
2022-10-21T18:03:32.531Z,101743.25
2022-10-21T18:06:19.586Z,101735.41
2022-10-21T18:09:06.890Z,101737.06
2022-10-21T18:11:55.594Z,101742.38
2022-10-21T18:14:42.597Z,101735.34
2022-10-21T18:17:29.518Z,101732.69
2022-10-21T18:20:16.737Z,101730.97
2022-10-21T18:23:03.633Z,101732.75
2022-10-21T18:25:50.468Z,101730.97
2022-10-21T18:28:37.425Z,101717.81
2022-10-21T18:31:25.490Z,101719.59
2022-10-21T18:34:15.151Z,101714.38
2022-10-21T18:37:02.191Z,101724.97
2022-10-21T18:39:49.267Z,101726.78
2022-10-21T18:42:36.329Z,101703.25
2022-10-21T18:45:23.573Z,101675.41
2022-10-21T18:48:10.477Z,101718.16
2022-10-21T18:50:57.380Z,101721.75
2022-10-21T18:53:47.247Z,101721.75
2022-10-21T18:56:37.903Z,101725.22
2022-10-21T18:59:24.981Z,101719.94
2022-10-21T19:02:14.022Z,101712.03
2022-10-21T19:05:02.481Z,101716.50
2022-10-21T19:07:49.919Z,101712.09
2022-10-21T19:10:36.946Z,101715.63
2022-10-21T19:13:23.855Z,101702.44
2022-10-21T19:16:10.836Z,101711.22
2022-10-21T19:18:57.697Z,101709.44
2022-10-21T19:21:44.988Z,101711.22
2022-10-21T19:24:32.199Z,101704.09
2022-10-21T19:27:19.512Z,101702.34
2022-10-21T19:30:06.372Z,101704.06
2022-10-21T19:32:53.224Z,101710.25
2022-10-21T19:35:20.619Z,101697.97
2022-10-21T19:38:11.553Z,101699.75
2022-10-21T19:41:02.842Z,101631.84
2022-10-21T19:43:49.764Z,101695.34
2022-10-21T19:47:01.377Z,101690.09
2022-10-21T19:49:48.349Z,101697.03
2022-10-21T19:52:35.284Z,101700.59
2022-10-21T19:55:22.086Z,101697.13
2022-10-21T19:58:08.984Z,101693.69
2022-10-21T20:00:56.287Z,101687.59
2022-10-21T20:03:43.351Z,101694.59
2022-10-21T20:06:33.453Z,101696.31
2022-10-21T20:09:24.436Z,101696.28
2022-10-21T20:12:11.332Z,101634.47
2022-10-21T20:14:58.428Z,101688.44
2022-10-21T20:17:45.320Z,101686.72
2022-10-21T20:20:32.232Z,101679.72
2022-10-21T20:23:19.071Z,101689.38
2022-10-21T20:26:09.301Z,101684.06
2022-10-21T20:28:57.411Z,101685.84
2022-10-21T20:31:44.801Z,101678.94
2022-10-21T20:34:13.683Z,101630.13
2022-10-21T20:36:40.971Z,101671.91
2022-10-21T20:39:07.935Z,101671.94
2022-10-21T20:41:37.366Z,101669.34
2022-10-21T20:44:07.775Z,101679.03
2022-10-21T20:46:36.388Z,101671.19
2022-10-21T20:49:07.780Z,101652.03
2022-10-21T20:51:38.096Z,101672.94
2022-10-21T20:54:08.362Z,101672.03
2022-10-21T20:56:38.643Z,101663.22
2022-10-21T20:59:07.229Z,101665.84
2022-10-21T21:01:41.338Z,101664.94
2022-10-21T21:04:12.681Z,101661.41
2022-10-21T21:06:44.833Z,101588.28
2022-10-21T21:12:02.847Z,101669.31
2022-10-21T21:14:30.074Z,101672.81
2022-10-21T21:16:57.044Z,101657.00
2022-10-21T21:19:24.499Z,101652.63
2022-10-21T21:21:51.446Z,101664.88
2022-10-21T21:24:18.352Z,101657.88
2022-10-21T21:26:45.837Z,101656.09
2022-10-21T21:29:13.841Z,101653.44
2022-10-21T21:31:41.689Z,101597.72
2022-10-21T21:34:09.702Z,101645.53
2022-10-21T21:36:36.971Z,101652.56
2022-10-21T21:39:05.747Z,101641.16
2022-10-21T21:41:33.307Z,101645.53
2022-10-21T21:44:00.263Z,101640.22
2022-10-21T21:46:27.638Z,101641.94
2022-10-21T21:49:00.871Z,101583.63
2022-10-21T21:51:29.487Z,101634.88
2022-10-21T21:53:57.806Z,101640.13
2022-10-21T21:56:26.879Z,101634.84
2022-10-21T21:58:56.060Z,101637.44
2022-10-21T22:01:25.421Z,101632.97
2022-10-21T22:03:53.468Z,101633.81
2022-10-21T22:06:22.933Z,101578.09
2022-10-21T22:08:50.735Z,101628.44
2022-10-21T22:11:20.875Z,101617.94
2022-10-21T22:13:48.365Z,101616.91
2022-10-21T22:16:16.194Z,101616.88
2022-10-21T22:18:43.996Z,101606.28
2022-10-21T22:21:13.533Z,101615.97
2022-10-21T22:24:01.043Z,101612.47
2022-10-21T22:26:47.889Z,101570.72
2022-10-21T22:29:34.964Z,101609.78
2022-10-21T22:32:21.880Z,101573.16
2022-10-21T22:35:08.866Z,101610.63
2022-10-21T22:37:56.037Z,101593.84
2022-10-21T22:40:42.984Z,101592.94
2022-10-21T22:43:29.865Z,101596.47
2022-10-21T22:46:05.104Z,101592.03
2022-10-21T22:49:02.276Z,101588.47
2022-10-21T22:54:49.073Z,101586.66
2022-10-21T22:57:36.774Z,101577.78
2022-10-21T23:00:24.777Z,101577.75
2022-10-21T23:03:11.751Z,101580.34
2022-10-21T23:05:58.573Z,101565.41
2022-10-21T23:08:45.753Z,101578.59
2022-10-21T23:11:32.665Z,101563.66
2022-10-21T23:14:19.797Z,101550.56
2022-10-21T23:17:06.690Z,101570.66
2022-10-21T23:19:53.744Z,101556.63
2022-10-21T23:22:40.917Z,101550.59
2022-10-21T23:25:28.724Z,101554.84
2022-10-21T23:28:16.464Z,101513.94
2022-10-21T23:31:03.544Z,101554.81
2022-10-21T23:33:50.369Z,101550.41
2022-10-21T23:36:37.472Z,101540.69
2022-10-21T23:39:24.775Z,101511.16
2022-10-21T23:42:11.762Z,101533.69
2022-10-21T23:44:58.556Z,101539.75
2022-10-21T23:47:45.680Z,101537.09
2022-10-21T23:50:32.551Z,101536.16
2022-10-21T23:53:19.656Z,101498.69
2022-10-21T23:56:06.435Z,101524.72
2022-10-21T23:58:53.546Z,101522.84
